Time;durP1;ratioP1;P1;durP2;ratioP2;P2;SDS_P1;SDS_P2;PMS_P1;PMS_P2;Temp;Humidity;BMP_temperature;BMP_pressure;BME280_temperature;BME280_humidity;BME280_pressure;Samples;Min_cycle;Max_cycle;Signal;HPM_P1;HPM_P2
2022/01/06 00:00:49;;;;;;;3.03;1.30;;;;;;;19.55;46.74;100184.63;5037582;28;20050;-76
2022/01/06 00:03:16;;;;;;;2.92;1.30;;;;;;;19.54;46.76;100205.25;5035938;28;20416;-77
2022/01/06 00:05:44;;;;;;;3.58;1.48;;;;;;;19.54;46.94;100197.19;5036382;28;20045;-77
2022/01/06 00:08:11;;;;;;;4.35;1.52;;;;;;;19.55;46.70;100206.94;5026246;28;20050;-77
2022/01/06 00:10:39;;;;;;;3.40;1.50;;;;;;;19.55;46.54;100216.81;5015071;28;20053;-77
2022/01/06 00:13:15;;;;;;;3.38;1.10;;;;;;;19.56;46.11;100223.88;4999010;28;20050;-77
2022/01/06 00:18:24;;;;;;;3.55;1.38;;;;;;;19.54;45.80;100229.41;5016847;28;20050;-77
2022/01/06 00:23:42;;;;;;;2.40;1.10;;;;;;;19.57;45.36;100247.03;5016464;28;20053;-77
2022/01/06 00:26:09;;;;;;;2.15;0.90;;;;;;;19.57;45.26;100255.09;5015010;28;20482;-77
2022/01/06 00:28:37;;;;;;;2.03;1.25;;;;;;;19.59;45.15;100258.50;5016265;28;20042;-77
2022/01/06 00:31:05;;;;;;;2.50;1.10;;;;;;;19.60;44.94;100265.56;5014866;28;20054;-77
2022/01/06 00:33:33;;;;;;;2.25;1.15;;;;;;;19.61;44.80;100269.97;5016591;28;20045;-77
2022/01/06 00:36:01;;;;;;;2.95;1.20;;;;;;;19.60;44.98;100277.13;5016407;28;20046;-76
2022/01/06 00:38:28;;;;;;;1.60;1.10;;;;;;;19.63;44.83;100276.03;5016305;28;20405;-77
2022/01/06 00:40:57;;;;;;;1.70;0.90;;;;;;;19.64;44.47;100281.25;5016395;28;20053;-77
2022/01/06 00:43:24;;;;;;;2.22;1.00;;;;;;;19.66;44.72;100287.34;5015897;28;20053;-77
2022/01/06 00:45:52;;;;;;;1.88;1.10;;;;;;;19.67;44.65;100294.38;5020603;28;20049;-76
2022/01/06 00:48:19;;;;;;;1.70;1.10;;;;;;;19.68;44.62;100301.44;5035300;28;20033;-77
2022/01/06 00:50:48;;;;;;;1.48;1.00;;;;;;;19.70;44.31;100291.41;5034903;28;20061;-77
2022/01/06 00:53:16;;;;;;;2.00;1.20;;;;;;;19.71;44.35;100303.00;5018487;28;20071;-77
2022/01/06 00:55:43;;;;;;;1.75;0.90;;;;;;;19.73;44.35;100303.72;5015992;28;20052;-77
2022/01/06 00:58:10;;;;;;;2.53;1.10;;;;;;;19.74;44.30;100310.78;5015661;28;20050;-76
2022/01/06 01:00:39;;;;;;;3.13;1.40;;;;;;;19.76;44.32;100317.66;5015656;28;20053;-76
2022/01/06 01:03:12;;;;;;;1.98;1.05;;;;;;;19.78;44.05;100319.38;5015909;28;20057;-76
2022/01/06 01:05:42;;;;;;;2.58;1.20;;;;;;;19.79;43.96;100321.06;5015694;28;20393;-77
2022/01/06 01:08:10;;;;;;;1.58;0.75;;;;;;;19.80;43.87;100320.91;5015214;28;20045;-76
2022/01/06 01:10:38;;;;;;;2.20;1.30;;;;;;;19.81;44.02;100337.88;5015042;28;20406;-76
2022/01/06 01:13:11;;;;;;;1.58;0.90;;;;;;;19.81;43.86;100352.19;5015475;28;20409;-77
2022/01/06 01:15:51;;;;;;;1.75;1.08;;;;;;;19.81;43.99;100357.56;5015277;28;20054;-77
2022/01/06 01:18:19;;;;;;;1.63;1.20;;;;;;;19.83;43.93;100371.66;5015636;28;20045;-77
2022/01/06 01:20:49;;;;;;;1.30;0.80;;;;;;;19.83;43.70;100365.44;5015882;28;20053;-76
2022/01/06 01:23:18;;;;;;;1.60;1.00;;;;;;;19.84;43.60;100376.03;5015197;28;20053;-76
2022/01/06 01:25:46;;;;;;;2.05;0.98;;;;;;;19.84;43.79;100381.41;5015403;28;20046;-76
2022/01/06 01:28:15;;;;;;;1.55;0.93;;;;;;;19.84;43.71;100381.41;5015379;28;20045;-77
2022/01/06 01:30:54;;;;;;;1.45;0.82;;;;;;;19.86;43.68;100398.25;5015118;28;20046;-76
2022/01/06 01:33:22;;;;;;;1.38;0.90;;;;;;;19.85;43.71;100401.94;5015141;28;20050;-76
2022/01/06 01:35:49;;;;;;;1.80;1.00;;;;;;;19.85;43.73;100406.44;5015137;28;20046;-77
2022/01/06 01:38:16;;;;;;;1.33;0.95;;;;;;;19.86;43.81;100413.50;5014842;28;20397;-77
2022/01/06 01:40:44;;;;;;;1.48;0.82;;;;;;;19.86;43.68;100416.19;5014987;28;20147;-77
2022/01/06 01:43:11;;;;;;;1.20;0.68;;;;;;;19.86;43.71;100424.25;5014831;28;20046;-76
2022/01/06 01:45:45;;;;;;;1.45;0.90;;;;;;;19.86;43.69;100430.47;5015103;28;20049;-76
2022/01/06 01:48:22;;;;;;;1.88;1.00;;;;;;;19.86;43.71;100437.69;5031177;28;20038;-76
2022/01/06 01:50:50;;;;;;;1.67;0.93;;;;;;;19.86;43.75;100445.75;5034967;28;20049;-76
2022/01/06 01:53:17;;;;;;;1.58;0.95;;;;;;;19.85;43.92;100452.97;5034465;28;20041;-76
2022/01/06 01:55:45;;;;;;;1.30;0.80;;;;;;;19.84;44.05;100453.09;5034575;28;20083;-76
2022/01/06 01:58:13;;;;;;;1.33;0.90;;;;;;;19.84;43.94;100458.47;5034639;28;20053;-76
2022/01/06 02:00:40;;;;;;;2.55;1.05;;;;;;;19.83;43.82;100468.38;5034401;28;20465;-76
2022/01/06 02:03:07;;;;;;;1.20;0.80;;;;;;;19.83;43.78;100464.84;5034802;28;20042;-76
2022/01/06 02:05:35;;;;;;;1.60;0.98;;;;;;;19.83;43.93;100467.53;5034001;28;20097;-76
2022/01/06 02:08:05;;;;;;;1.50;0.88;;;;;;;19.82;43.88;100471.22;5025004;28;20050;-76
2022/01/06 02:10:33;;;;;;;1.83;0.85;;;;;;;19.81;43.99;100472.19;5014625;28;20053;-76
2022/01/06 02:13:01;;;;;;;1.33;0.80;;;;;;;19.79;43.86;100461.59;4996728;28;20053;-76
2022/01/06 02:15:29;;;;;;;1.60;0.77;;;;;;;19.80;43.89;100462.44;5013852;28;20440;-76
2022/01/06 02:17:56;;;;;;;2.53;0.93;;;;;;;19.78;43.82;100469.81;5014472;28;20053;-77
2022/01/06 02:20:24;;;;;;;1.58;0.80;;;;;;;19.78;44.01;100477.84;5014079;28;20049;-76
2022/01/06 02:22:52;;;;;;;2.03;1.00;;;;;;;19.78;44.05;100485.91;5012768;28;20054;-77
2022/01/06 02:25:32;;;;;;;1.55;0.90;;;;;;;19.77;44.04;100493.13;5014441;28;20397;-76
2022/01/06 02:28:03;;;;;;;2.30;0.80;;;;;;;19.75;44.04;100493.25;5014628;28;20049;-76
2022/01/06 02:30:33;;;;;;;1.55;0.90;;;;;;;19.76;44.04;100494.09;5014218;28;20058;-76
2022/01/06 02:33:01;;;;;;;2.10;0.80;;;;;;;19.75;44.01;100487.88;5013988;28;20053;-77
2022/01/06 02:35:29;;;;;;;1.13;0.75;;;;;;;19.73;44.12;100479.13;5014083;28;20046;-76
2022/01/06 02:37:57;;;;;;;1.23;0.80;;;;;;;19.73;44.22;100491.72;5012467;28;20053;-77
2022/01/06 02:40:26;;;;;;;2.13;0.77;;;;;;;19.73;44.26;100487.19;5013762;28;20060;-77
2022/01/06 02:42:56;;;;;;;1.55;0.80;;;;;;;19.72;44.04;100501.59;5012791;28;20058;-77
2022/01/06 02:45:28;;;;;;;1.35;0.80;;;;;;;19.74;43.77;100498.78;5013765;28;20406;-77
2022/01/06 02:47:56;;;;;;;1.17;0.60;;;;;;;19.74;43.66;100507.69;5020533;28;20052;-77
2022/01/06 02:50:25;;;;;;;1.77;0.95;;;;;;;19.76;43.70;100515.59;5031922;28;20045;-77
2022/01/06 02:52:53;;;;;;;1.17;0.75;;;;;;;19.76;43.58;100516.44;5025788;28;20041;-77
2022/01/06 02:55:21;;;;;;;1.52;0.95;;;;;;;19.79;43.48;100522.53;5012280;28;20049;-77
2022/01/06 02:57:48;;;;;;;1.08;0.70;;;;;;;19.79;43.59;100517.16;5012349;28;20046;-78
2022/01/06 03:00:17;;;;;;;1.15;0.70;;;;;;;19.79;43.66;100531.44;5012529;28;20054;-77
2022/01/06 03:02:46;;;;;;;1.42;0.75;;;;;;;19.80;43.38;100527.75;5013918;28;20057;-77
2022/01/06 03:05:16;;;;;;;1.30;0.70;;;;;;;19.80;43.50;100521.53;5014224;28;20054;-77
2022/01/06 03:07:45;;;;;;;2.17;0.70;;;;;;;19.81;43.46;100531.28;5012958;28;20046;-77
2022/01/06 03:10:16;;;;;;;1.52;0.80;;;;;;;19.80;43.50;100530.44;5013458;28;20548;-77
2022/01/06 03:12:45;;;;;;;1.35;0.80;;;;;;;19.80;43.40;100530.44;5013851;28;20050;-77
2022/01/06 03:15:23;;;;;;;1.40;0.70;;;;;;;19.79;43.42;100523.38;5013260;28;20054;-77
2022/01/06 03:17:58;;;;;;;0.90;0.68;;;;;;;19.80;43.44;100534.94;5011806;28;20073;-76
2022/01/06 03:20:29;;;;;;;1.40;0.88;;;;;;;19.79;43.42;100542.16;5013640;28;20049;-77
2022/01/06 03:22:57;;;;;;;1.25;0.60;;;;;;;19.80;43.40;100537.63;5013221;28;20094;-76
2022/01/06 03:25:24;;;;;;;1.00;0.60;;;;;;;19.79;43.49;100536.78;5013506;28;20049;-77
2022/01/06 03:27:52;;;;;;;1.20;0.60;;;;;;;19.78;43.62;100537.78;5013209;28;20042;-77
2022/01/06 03:30:21;;;;;;;2.08;0.88;;;;;;;19.78;43.61;100534.25;5013190;28;20054;-77
2022/01/06 03:32:50;;;;;;;1.70;0.70;;;;;;;19.77;43.49;100541.47;5012926;28;20050;-76
2022/01/06 03:35:23;;;;;;;1.15;0.68;;;;;;;19.77;43.57;100538.78;5013719;28;20050;-77
2022/01/06 03:37:51;;;;;;;2.22;0.85;;;;;;;19.75;43.49;100536.22;5013102;28;20042;-76
2022/01/06 03:40:18;;;;;;;1.27;0.70;;;;;;;19.75;43.50;100532.69;5013018;28;20478;-77
2022/01/06 03:42:47;;;;;;;2.10;0.70;;;;;;;19.74;43.58;100534.53;5012311;28;20490;-77
2022/01/06 03:45:17;;;;;;;0.90;0.60;;;;;;;19.74;43.42;100545.28;5013014;28;20042;-77
2022/01/06 03:47:45;;;;;;;1.15;0.70;;;;;;;19.74;43.58;100539.06;5012907;28;20038;-77
2022/01/06 03:50:14;;;;;;;1.05;0.60;;;;;;;19.74;43.39;100545.28;5029617;28;20052;-76
2022/01/06 03:52:42;;;;;;;1.25;0.70;;;;;;;19.73;43.62;100554.34;5032674;28;20049;-77
2022/01/06 03:55:13;;;;;;;0.90;0.60;;;;;;;19.73;43.77;100553.50;5031675;28;20046;-77
2022/01/06 03:57:41;;;;;;;1.20;0.70;;;;;;;19.72;43.97;100551.78;5032663;28;20432;-78
2022/01/06 04:00:11;;;;;;;1.23;0.70;;;;;;;19.73;43.75;100556.19;5032999;28;20056;-77
2022/01/06 04:02:40;;;;;;;1.15;0.70;;;;;;;19.72;43.89;100558.00;5038991;28;20061;-76
2022/01/06 04:05:09;;;;;;;1.20;0.70;;;;;;;19.72;43.97;100560.69;5031732;28;20049;-77
2022/01/06 04:07:37;;;;;;;0.88;0.60;;;;;;;19.72;43.94;100565.19;5026058;28;20042;-76
2022/01/06 04:10:06;;;;;;;1.00;0.70;;;;;;;19.70;43.89;100572.56;5012811;28;20042;-76
2022/01/06 04:12:35;;;;;;;1.40;0.80;;;;;;;19.70;43.87;100570.72;5012698;28;20049;-76
2022/01/06 04:15:04;;;;;;;1.90;0.60;;;;;;;19.70;43.80;100570.72;5011232;28;20058;-76
2022/01/06 04:17:32;;;;;;;1.58;0.73;;;;;;;19.70;43.97;100570.72;5012424;28;20057;-76
2022/01/06 04:19:59;;;;;;;1.40;0.80;;;;;;;19.70;43.45;100569.88;5013034;28;20046;-76
2022/01/06 04:22:26;;;;;;;1.00;0.70;;;;;;;19.70;43.78;100580.63;5012616;28;20042;-77
2022/01/06 04:24:54;;;;;;;1.25;0.70;;;;;;;19.69;43.75;100577.09;5011164;28;20147;-77
2022/01/06 04:27:21;;;;;;;1.02;0.70;;;;;;;19.69;43.78;100589.69;5013241;28;20401;-77
2022/01/06 04:29:48;;;;;;;0.93;0.70;;;;;;;19.68;43.67;100583.44;5012516;28;20401;-76
2022/01/06 04:32:16;;;;;;;0.85;0.60;;;;;;;19.68;43.79;100591.50;5012605;28;20056;-76
2022/01/06 04:34:43;;;;;;;1.25;0.73;;;;;;;19.69;43.87;100598.59;5012849;28;20069;-76
2022/01/06 04:37:10;;;;;;;0.90;0.60;;;;;;;19.68;43.85;100604.06;5011161;28;20054;-76
2022/01/06 04:39:38;;;;;;;1.17;0.60;;;;;;;19.69;43.78;100595.06;5012692;28;20482;-76
2022/01/06 04:42:05;;;;;;;0.98;0.57;;;;;;;19.69;43.87;100605.78;5012843;28;20053;-76
2022/01/06 04:44:33;;;;;;;1.08;0.70;;;;;;;19.68;43.63;100610.28;5012317;28;20052;-76
2022/01/06 04:47:01;;;;;;;0.73;0.60;;;;;;;19.68;43.86;100612.97;5015495;28;20049;-76
2022/01/06 04:49:28;;;;;;;1.35;0.70;;;;;;;19.68;43.69;100612.97;5019005;28;20397;-76
2022/01/06 04:51:56;;;;;;;1.25;0.70;;;;;;;19.67;43.70;100619.34;5034955;28;20038;-76
2022/01/06 04:54:23;;;;;;;1.10;0.63;;;;;;;19.67;43.72;100613.97;5011821;28;20046;-76
2022/01/06 04:56:50;;;;;;;0.80;0.50;;;;;;;19.66;43.54;100614.97;4994552;28;20057;-77
2022/01/06 04:59:18;;;;;;;0.90;0.60;;;;;;;19.66;43.36;100617.66;4996112;28;20420;-77
2022/01/06 05:01:45;;;;;;;1.05;0.60;;;;;;;19.67;43.33;100619.34;5027394;28;20050;-77
2022/01/06 05:04:12;;;;;;;0.70;0.50;;;;;;;19.68;43.14;100625.56;4996384;28;20057;-77
2022/01/06 05:06:40;;;;;;;1.15;0.70;;;;;;;19.67;43.24;100619.34;4995929;28;20057;-77
2022/01/06 05:09:07;;;;;;;0.80;0.60;;;;;;;19.67;43.15;100624.72;5013426;28;20065;-77
2022/01/06 05:11:35;;;;;;;0.98;0.60;;;;;;;19.68;43.22;100637.16;5015913;28;20046;-76
2022/01/06 05:14:02;;;;;;;1.30;0.80;;;;;;;19.67;43.28;100630.09;5015386;28;20481;-77
2022/01/06 05:16:29;;;;;;;1.38;0.60;;;;;;;19.67;43.25;100640.81;5015381;28;20053;-77
2022/01/06 05:18:57;;;;;;;2.50;0.82;;;;;;;19.67;43.28;100635.47;5015677;28;20046;-77
2022/01/06 05:21:28;;;;;;;0.85;0.60;;;;;;;19.67;43.15;100635.47;5014078;28;20046;-77
2022/01/06 05:23:56;;;;;;;0.80;0.60;;;;;;;19.67;43.10;100640.81;5015329;28;20504;-77
2022/01/06 05:26:24;;;;;;;0.82;0.50;;;;;;;19.68;43.08;100639.00;5015306;28;20050;-77
2022/01/06 05:28:51;;;;;;;1.30;0.60;;;;;;;19.67;42.98;100638.13;5014898;28;20061;-77
2022/01/06 05:31:18;;;;;;;1.08;0.60;;;;;;;19.67;42.92;100629.25;5015029;28;20053;-77
2022/01/06 05:33:47;;;;;;;0.95;0.60;;;;;;;19.66;43.40;100636.44;5015613;28;20061;-78
2022/01/06 05:36:14;;;;;;;0.88;0.52;;;;;;;19.65;43.16;100645.50;5015087;28;20046;-77
2022/01/06 05:38:41;;;;;;;1.70;0.65;;;;;;;19.64;43.42;100648.31;5014845;28;20485;-77
2022/01/06 05:41:09;;;;;;;2.42;0.80;;;;;;;19.64;43.53;100645.63;5015397;28;20053;-76
2022/01/06 05:43:36;;;;;;;0.80;0.60;;;;;;;19.63;43.21;100643.94;5013840;28;20054;-76
2022/01/06 05:46:03;;;;;;;1.77;0.70;;;;;;;19.61;43.51;100649.44;5014952;28;20050;-76
2022/01/06 05:48:31;;;;;;;2.35;0.57;;;;;;;19.62;43.52;100648.47;5014082;28;20049;-77
2022/01/06 05:50:58;;;;;;;0.80;0.50;;;;;;;19.61;43.55;100657.50;5021466;28;20045;-77
2022/01/06 05:53:26;;;;;;;0.90;0.60;;;;;;;19.60;43.86;100661.13;5032523;28;20045;-77
2022/01/06 05:55:53;;;;;;;0.88;0.50;;;;;;;19.60;43.53;100657.59;5034772;28;20046;-77
2022/01/06 05:58:21;;;;;;;1.23;0.60;;;;;;;19.60;43.50;100654.91;5032890;28;20053;-77
2022/01/06 06:00:50;;;;;;;1.85;0.60;;;;;;;19.59;43.29;100661.28;5034659;28;20052;-76
2022/01/06 06:03:17;;;;;;;1.05;0.63;;;;;;;19.60;43.41;100660.28;5034432;28;20515;-76
2022/01/06 06:05:45;;;;;;;1.75;0.68;;;;;;;19.60;43.42;100671.88;5066554;28;20485;-76
2022/01/06 06:08:12;;;;;;;0.70;0.50;;;;;;;19.59;43.15;100664.81;5023884;28;20041;-76
2022/01/06 06:10:39;;;;;;;1.60;0.60;;;;;;;19.59;43.31;100663.97;5013160;28;20054;-76
2022/01/06 06:13:06;;;;;;;0.70;0.50;;;;;;;19.58;43.36;100665.81;5014536;28;20053;-76
2022/01/06 06:15:35;;;;;;;1.90;0.60;;;;;;;19.58;43.46;100671.16;5012484;28;20521;-77
2022/01/06 06:18:07;;;;;;;1.45;0.70;;;;;;;19.57;43.21;100674.84;5014342;28;20497;-77
2022/01/06 06:20:36;;;;;;;0.88;0.50;;;;;;;19.59;43.34;100680.06;5013998;28;20162;-76
2022/01/06 06:23:04;;;;;;;1.98;0.60;;;;;;;19.58;43.48;100683.75;5014264;28;20049;-76
2022/01/06 06:25:32;;;;;;;0.80;0.55;;;;;;;19.57;43.42;100682.91;5013068;28;20046;-77
2022/01/06 06:28:00;;;;;;;1.10;0.65;;;;;;;19.57;43.53;100684.72;5013139;28;20072;-76
2022/01/06 06:30:27;;;;;;;0.63;0.50;;;;;;;19.56;43.43;100675.81;5014005;28;20057;-76
2022/01/06 06:32:55;;;;;;;1.23;0.60;;;;;;;19.58;43.45;100681.06;5013936;28;20053;-76
2022/01/06 06:35:22;;;;;;;1.38;0.63;;;;;;;19.57;43.50;100680.22;5014047;28;20048;-76
2022/01/06 06:37:50;;;;;;;1.17;0.63;;;;;;;19.56;43.54;100678.50;5012858;28;20050;-77
2022/01/06 06:40:19;;;;;;;1.45;0.70;;;;;;;19.56;43.54;100681.19;5013717;28;20513;-76
2022/01/06 06:42:46;;;;;;;1.90;0.70;;;;;;;19.57;43.40;100682.91;5013778;28;20053;-76
2022/01/06 06:45:15;;;;;;;1.40;0.70;;;;;;;19.57;43.33;100682.03;5014371;28;20057;-76
2022/01/06 06:47:43;;;;;;;1.33;0.50;;;;;;;19.56;43.64;100678.50;5013850;28;20042;-76
2022/01/06 06:50:12;;;;;;;1.52;0.68;;;;;;;19.55;43.72;100682.19;5013986;28;20046;-76
2022/01/06 06:52:40;;;;;;;1.05;0.63;;;;;;;19.56;43.55;100683.88;5025517;28;20054;-76
2022/01/06 06:55:08;;;;;;;0.90;0.60;;;;;;;19.55;43.56;100684.88;5014965;28;20045;-76
2022/01/06 06:57:35;;;;;;;1.00;0.50;;;;;;;19.55;43.51;100690.22;5013592;28;20409;-76
2022/01/06 07:00:05;;;;;;;0.93;0.60;;;;;;;19.54;43.24;100685.84;5012358;28;20401;-76
2022/01/06 07:02:33;;;;;;;1.02;0.52;;;;;;;19.55;43.19;100686.69;5013382;28;20050;-76
2022/01/06 07:05:01;;;;;;;1.10;0.68;;;;;;;19.55;43.13;100695.59;5013447;28;20050;-76
2022/01/06 07:07:30;;;;;;;0.70;0.50;;;;;;;19.56;43.26;100696.44;5013817;28;20053;-76
2022/01/06 07:09:57;;;;;;;1.15;0.60;;;;;;;19.55;43.00;100695.59;5011746;28;20042;-76
2022/01/06 07:12:24;;;;;;;0.80;0.60;;;;;;;19.56;43.08;100691.06;5013654;28;20050;-76
2022/01/06 07:14:52;;;;;;;1.50;0.70;;;;;;;19.54;42.96;100683.16;5011471;28;20049;-77
2022/01/06 07:17:19;;;;;;;1.27;0.70;;;;;;;19.55;43.07;100684.88;5013360;28;20062;-76
2022/01/06 07:19:47;;;;;;;0.73;0.52;;;;;;;19.56;43.01;100691.94;5013560;28;20057;-77
2022/01/06 07:22:14;;;;;;;1.15;0.70;;;;;;;19.56;42.94;100693.75;5013244;28;20042;-76
2022/01/06 07:24:41;;;;;;;1.05;0.60;;;;;;;19.56;43.22;100694.59;5012622;28;20053;-76
2022/01/06 07:27:14;;;;;;;1.17;0.70;;;;;;;19.55;43.24;100690.22;5013361;28;20054;-76
2022/01/06 07:29:41;;;;;;;1.88;0.82;;;;;;;19.56;43.01;100699.97;5013408;28;20041;-76
2022/01/06 07:32:09;;;;;;;2.42;0.80;;;;;;;19.55;43.24;100700.97;5013464;28;20423;-77
2022/01/06 07:34:36;;;;;;;1.30;0.70;;;;;;;19.55;43.31;100694.75;5011964;28;20049;-76
2022/01/06 07:37:04;;;;;;;1.20;0.60;;;;;;;19.54;43.18;100699.28;5013072;28;20409;-76
2022/01/06 07:39:32;;;;;;;1.38;0.80;;;;;;;19.54;43.26;100693.91;5013000;28;20053;-76
2022/01/06 07:42:00;;;;;;;1.50;0.90;;;;;;;19.54;43.49;100698.44;5013562;28;20042;-76
2022/01/06 07:44:28;;;;;;;1.98;0.90;;;;;;;19.52;43.33;100701.25;5012092;28;20398;-76
2022/01/06 07:46:56;;;;;;;1.83;1.00;;;;;;;19.52;43.40;100701.25;5013415;28;20046;-76
2022/01/06 07:49:24;;;;;;;2.40;0.80;;;;;;;19.52;43.31;100711.97;5013599;28;20049;-76
2022/01/06 07:51:51;;;;;;;1.55;0.80;;;;;;;19.51;43.49;100719.19;5011874;28;20057;-76
2022/01/06 07:54:18;;;;;;;1.70;0.95;;;;;;;19.51;43.42;100715.66;5028273;28;20085;-76
2022/01/06 07:56:46;;;;;;;1.35;0.80;;;;;;;19.49;43.25;100717.66;5032894;28;20050;-76
2022/01/06 07:59:13;;;;;;;2.45;0.90;;;;;;;19.49;43.43;100720.31;5031434;28;20056;-76
2022/01/06 08:01:40;;;;;;;1.73;0.90;;;;;;;19.48;43.52;100722.13;5032388;28;20056;-76
2022/01/06 08:04:08;;;;;;;1.95;0.90;;;;;;;19.49;43.46;100729.22;5032682;28;20045;-76
2022/01/06 08:06:35;;;;;;;1.73;0.90;;;;;;;19.49;43.54;100731.06;5032509;28;20056;-76
2022/01/06 08:09:03;;;;;;;2.00;1.10;;;;;;;19.48;43.57;100737.41;5015527;28;20050;-76
2022/01/06 08:11:30;;;;;;;1.50;0.88;;;;;;;19.47;43.61;100736.56;5011544;28;20050;-76
2022/01/06 08:13:57;;;;;;;1.77;0.90;;;;;;;19.47;43.69;100738.38;5012743;28;20046;-76
2022/01/06 08:16:25;;;;;;;1.65;0.90;;;;;;;19.47;43.68;100746.44;5012737;28;20058;-76
2022/01/06 08:18:52;;;;;;;1.52;1.00;;;;;;;19.47;43.90;100757.19;5012864;28;20054;-76
2022/01/06 08:21:20;;;;;;;1.45;0.90;;;;;;;19.46;43.60;100750.97;5014716;28;20041;-76
2022/01/06 08:23:47;;;;;;;1.98;1.10;;;;;;;19.46;43.50;100753.66;5016480;28;20057;-76
2022/01/06 08:26:16;;;;;;;1.42;0.80;;;;;;;19.46;43.56;100758.19;5016457;28;20046;-77
2022/01/06 08:28:47;;;;;;;1.65;0.93;;;;;;;19.46;43.66;100763.56;5016222;28;20053;-76
2022/01/06 08:31:16;;;;;;;1.60;1.00;;;;;;;19.46;43.61;100769.75;5016489;28;20053;-77
2022/01/06 08:33:45;;;;;;;2.00;0.93;;;;;;;19.46;43.77;100771.59;5016693;28;20050;-77
2022/01/06 08:36:12;;;;;;;1.90;1.10;;;;;;;19.46;44.12;100772.44;5014851;28;20068;-77
2022/01/06 08:38:40;;;;;;;1.80;1.08;;;;;;;19.47;44.15;100778.66;5015819;28;20072;-76
2022/01/06 08:41:08;;;;;;;1.50;0.98;;;;;;;19.46;44.26;100775.13;5016366;28;20042;-76
2022/01/06 08:43:36;;;;;;;1.55;0.98;;;;;;;19.45;44.19;100775.28;5015827;28;20053;-76
2022/01/06 08:46:03;;;;;;;1.70;1.10;;;;;;;19.47;44.21;100784.03;5014460;28;20053;-76
2022/01/06 08:48:31;;;;;;;3.35;1.13;;;;;;;19.45;44.08;100786.88;5016099;28;20056;-76
2022/01/06 08:50:58;;;;;;;2.53;1.00;;;;;;;19.42;44.41;100787.13;5015534;28;20038;-76
2022/01/06 08:53:26;;;;;;;2.03;0.98;;;;;;;19.41;44.05;100798.84;5018407;28;20080;-76
2022/01/06 08:55:53;;;;;;;2.63;0.80;;;;;;;19.43;44.13;100796.03;5028236;28;20111;-77
2022/01/06 08:58:21;;;;;;;1.88;0.85;;;;;;;19.43;43.98;100788.81;5035394;28;20049;-77
2022/01/06 09:00:49;;;;;;;1.90;0.90;;;;;;;19.44;43.81;100797.72;5035210;28;20037;-76
2022/01/06 09:03:16;;;;;;;2.13;1.38;;;;;;;19.42;41.67;100802.38;5034461;28;20485;-77
2022/01/06 09:05:44;;;;;;;2.67;1.55;;;;;;;19.11;39.80;100809.53;5035388;28;20057;-76
2022/01/06 09:08:11;;;;;;;2.72;1.15;;;;;;;18.70;39.42;100806.69;5023973;28;20054;-76
2022/01/06 09:10:39;;;;;;;2.20;1.50;;;;;;;18.36;40.20;100818.47;5015570;28;20037;-77
2022/01/06 09:13:25;;;;;;;3.13;1.60;;;;;;;18.01;41.06;100819.50;5015798;28;20052;-77
2022/01/06 09:15:54;;;;;;;3.53;1.50;;;;;;;17.83;41.08;100831.72;5015251;28;20061;-77
2022/01/06 09:18:21;;;;;;;2.78;1.70;;;;;;;17.62;41.71;100829.69;5015397;28;20042;-77
2022/01/06 09:20:49;;;;;;;2.95;1.48;;;;;;;17.50;42.00;100830.66;5014969;28;20050;-76
2022/01/06 09:23:16;;;;;;;3.00;1.65;;;;;;;17.39;41.94;100831.50;5013947;28;20054;-77
2022/01/06 09:25:43;;;;;;;3.70;1.70;;;;;;;17.34;41.75;100840.84;5015616;28;20056;-77
2022/01/06 09:28:11;;;;;;;3.45;1.50;;;;;;;17.24;41.82;100846.91;5014140;28;20053;-77
2022/01/06 09:30:38;;;;;;;2.60;1.83;;;;;;;17.18;42.29;100844.72;5015485;28;20046;-77
2022/01/06 09:33:06;;;;;;;2.35;1.50;;;;;;;17.12;41.99;100853.19;5014436;28;20057;-77
2022/01/06 09:35:33;;;;;;;2.03;1.40;;;;;;;17.04;41.88;100856.47;5013451;28;20056;-78
2022/01/06 09:38:01;;;;;;;3.95;1.70;;;;;;;17.01;42.29;100855.84;5015349;28;20041;-77
2022/01/06 09:40:28;;;;;;;2.42;1.42;;;;;;;17.08;41.85;100857.09;5014556;28;20038;-76
2022/01/06 09:42:55;;;;;;;3.05;1.58;;;;;;;17.15;42.30;100866.34;5014615;28;20489;-76
2022/01/06 09:45:27;;;;;;;2.60;1.58;;;;;;;17.19;42.05;100870.50;5013810;28;20054;-76
2022/01/06 09:47:55;;;;;;;2.05;1.27;;;;;;;17.35;43.28;100870.19;5015099;28;20049;-77
2022/01/06 09:50:22;;;;;;;2.55;1.30;;;;;;;17.52;44.44;100866.19;5014720;28;20041;-77
2022/01/06 09:52:51;;;;;;;2.60;1.33;;;;;;;17.66;44.17;100871.34;5014858;28;20046;-77
2022/01/06 09:55:21;;;;;;;2.05;1.13;;;;;;;17.78;43.75;100875.78;5021439;28;20389;-76
2022/01/06 09:57:59;;;;;;;2.17;1.05;;;;;;;17.88;43.59;100875.88;5032277;28;20046;-76
2022/01/06 10:00:31;;;;;;;2.70;1.42;;;;;;;17.97;41.47;100877.81;5033089;28;20050;-77
2022/01/06 10:03:03;;;;;;;7.60;1.35;;;;;;;18.03;41.96;100873.81;5034410;28;20072;-77
2022/01/06 10:05:41;;;;;;;2.05;1.17;;;;;;;18.10;43.02;100883.06;5034919;28;20049;-78
2022/01/06 10:08:11;;;;;;;2.65;1.38;;;;;;;18.15;43.08;100883.56;5022702;28;20057;-77
2022/01/06 10:10:40;;;;;;;2.88;1.20;;;;;;;18.19;42.89;100887.69;5014162;28;20046;-77
2022/01/06 10:13:09;;;;;;;2.47;1.13;;;;;;;18.22;42.48;100883.91;5014405;28;20046;-77
2022/01/06 10:15:38;;;;;;;3.70;1.30;;;;;;;18.25;42.60;100881.84;5014325;28;20054;-79
2022/01/06 10:18:16;;;;;;;3.22;1.25;;;;;;;18.28;42.90;100876.22;5013825;28;20086;-76
2022/01/06 10:20:47;;;;;;;1.90;1.23;;;;;;;18.32;42.93;100884.03;5014277;28;20057;-77
2022/01/06 10:23:16;;;;;;;1.70;1.00;;;;;;;18.35;42.83;100873.03;5014176;28;20052;-77
2022/01/06 10:25:49;;;;;;;2.10;1.10;;;;;;;18.37;42.61;100877.31;5012092;28;20064;-77
2022/01/06 10:28:24;;;;;;;1.67;1.00;;;;;;;18.39;42.66;100886.09;5014090;28;20057;-76
2022/01/06 10:30:51;;;;;;;1.77;1.00;;;;;;;18.41;42.71;100892.16;5014214;28;20065;-76
2022/01/06 10:33:21;;;;;;;2.67;1.30;;;;;;;18.44;42.77;100894.59;5012873;28;20045;-76
2022/01/06 10:35:48;;;;;;;1.67;0.90;;;;;;;18.45;42.61;100884.72;4997224;28;20050;-77
2022/01/06 10:38:28;;;;;;;3.28;1.17;;;;;;;18.47;42.78;100880.97;5013693;28;20050;-77
2022/01/06 10:41:16;;;;;;;3.08;1.27;;;;;;;18.49;42.73;100878.16;5014407;28;20053;-77
2022/01/06 10:43:51;;;;;;;1.50;1.00;;;;;;;18.50;43.00;100879.84;5013090;28;20477;-76
2022/01/06 10:46:35;;;;;;;2.08;1.00;;;;;;;18.51;43.00;100882.41;5013043;28;20045;-77
2022/01/06 10:49:20;;;;;;;;;;;;;;;18.53;43.11;100880.44;5013774;28;20045;-77
2022/01/06 10:51:49;;;;;;;2.25;1.00;;;;;;;18.54;43.06;100887.50;5013551;28;19929;-77
2022/01/06 10:54:23;;;;;;;1.67;1.00;;;;;;;18.55;43.08;100885.66;5013899;28;20054;-77
2022/01/06 10:57:00;;;;;;;2.35;1.02;;;;;;;18.56;43.13;100887.41;5019653;28;20057;-77
2022/01/06 10:59:30;;;;;;;2.35;1.27;;;;;;;18.57;43.12;100891.78;5031959;28;20037;-77
2022/01/06 11:01:57;;;;;;;2.17;1.20;;;;;;;18.59;43.31;100900.53;5033595;28;20401;-77
2022/01/06 11:04:26;;;;;;;3.45;1.17;;;;;;;18.61;43.23;100898.59;5032953;28;20409;-77
2022/01/06 11:06:54;;;;;;;2.35;1.13;;;;;;;18.61;43.35;100895.06;5032307;28;20101;-77
2022/01/06 11:09:25;;;;;;;2.28;1.13;;;;;;;18.60;43.10;100894.22;4993542;28;20046;-77
2022/01/06 11:14:27;;;;;;;2.40;1.00;;;;;;;18.61;43.23;100898.59;4993769;28;20058;-77
2022/01/06 11:16:58;;;;;;;2.75;1.13;;;;;;;18.64;43.26;100897.50;4993374;28;20046;-77
2022/01/06 11:19:28;;;;;;;3.05;1.10;;;;;;;18.65;43.38;100899.19;4976732;28;20054;-77
2022/01/06 11:22:01;;;;;;;2.63;1.17;;;;;;;18.65;43.25;100897.34;4992720;28;20058;-78
2022/01/06 11:24:28;;;;;;;1.40;0.90;;;;;;;18.65;43.49;100902.72;4993894;28;20478;-77
2022/01/06 11:26:59;;;;;;;2.00;1.13;;;;;;;18.66;43.57;100909.78;4993447;28;20050;-77
2022/01/06 11:29:35;;;;;;;3.65;1.10;;;;;;;18.67;43.87;100913.31;4995515;28;20046;-77
2022/01/06 11:32:16;;;;;;;2.88;1.00;;;;;;;18.67;44.04;100911.47;5011268;28;20046;-76
2022/01/06 11:34:43;;;;;;;2.28;1.10;;;;;;;18.67;44.26;100900.75;5013434;28;20046;-77
2022/01/06 11:37:17;;;;;;;2.40;1.05;;;;;;;18.68;44.19;100901.63;5012976;28;20049;-78
2022/01/06 11:39:47;;;;;;;2.63;1.20;;;;;;;18.68;44.48;100912.34;5013011;28;20486;-77